createdAt,value
2023-11-16T00:00:58.032Z,100576.06
2023-11-16T00:03:44.973Z,100565.66
2023-11-16T00:06:30.659Z,100569.16
2023-11-16T00:09:16.309Z,100563.09
2023-11-16T00:12:04.995Z,100573.47
2023-11-16T00:14:50.406Z,100570.84
2023-11-16T00:17:38.578Z,100572.66
2023-11-16T00:20:24.477Z,100570.84
2023-11-16T00:23:10.158Z,100565.69
2023-11-16T00:25:56.565Z,100561.31
2023-11-16T00:28:44.120Z,100555.28
2023-11-16T00:31:31.641Z,100557.78
2023-11-16T00:34:17.282Z,100555.34
2023-11-16T00:37:06.979Z,100554.47
2023-11-16T00:39:53.810Z,100549.31
2023-11-16T00:42:38.820Z,100546.69
2023-11-16T00:45:24.622Z,100546.66
2023-11-16T00:48:10.666Z,100536.28
2023-11-16T00:50:56.389Z,100535.44
2023-11-16T00:53:44.125Z,100532.84
2023-11-16T00:56:29.761Z,100525.84
2023-11-16T00:59:15.800Z,100517.28
2023-11-16T01:02:02.850Z,100521.59
2023-11-16T01:04:48.301Z,100520.75
2023-11-16T01:07:35.118Z,100514.78
2023-11-16T01:10:25.215Z,100511.19
2023-11-16T01:13:12.722Z,100522.53
2023-11-16T01:15:59.744Z,100512.94
2023-11-16T01:18:51.865Z,100505.19
2023-11-16T01:21:45.640Z,100516.47
2023-11-16T01:24:36.350Z,100513.88
2023-11-16T01:27:28.232Z,100509.56
2023-11-16T01:30:14.705Z,100521.75
2023-11-16T01:33:00.125Z,100519.22
2023-11-16T01:35:45.967Z,100517.44
2023-11-16T01:38:32.304Z,100515.78
2023-11-16T01:41:19.284Z,100504.59
2023-11-16T01:44:04.697Z,100511.50
2023-11-16T01:46:51.814Z,100507.22
2023-11-16T01:49:37.759Z,100503.81
2023-11-16T01:52:23.336Z,100496.88
2023-11-16T01:55:09.194Z,100486.50
2023-11-16T01:57:55.785Z,100488.19
2023-11-16T02:00:44.841Z,100482.19
2023-11-16T02:03:30.962Z,100484.84
2023-11-16T02:06:17.522Z,100486.75
2023-11-16T02:09:03.550Z,100483.22
2023-11-16T02:11:48.807Z,100490.16
2023-11-16T02:14:33.760Z,100489.16
2023-11-16T02:17:19.357Z,100491.72
2023-11-16T02:20:08.248Z,100486.41
2023-11-16T02:22:55.772Z,100476.06
2023-11-16T02:25:44.680Z,100483.94
2023-11-16T02:28:31.896Z,100484.00
2023-11-16T02:31:19.848Z,100484.00
2023-11-16T02:34:04.969Z,100485.75
2023-11-16T02:36:50.468Z,100489.31
2023-11-16T02:39:36.026Z,100477.94
2023-11-16T02:42:21.481Z,100472.81
2023-11-16T02:45:08.101Z,100485.75
2023-11-16T02:47:54.665Z,100471.94
2023-11-16T02:50:39.927Z,100469.31
2023-11-16T02:53:25.241Z,100467.69
2023-11-16T02:56:12.444Z,100474.59
2023-11-16T02:58:58.049Z,100462.47
2023-11-16T03:01:43.614Z,100468.44
2023-11-16T03:04:28.961Z,100471.91
2023-11-16T03:07:26.808Z,100464.03
2023-11-16T03:10:18.481Z,100463.22
2023-11-16T03:13:05.166Z,100464.97
2023-11-16T03:15:51.045Z,100467.56
2023-11-16T03:18:37.547Z,100463.09
2023-11-16T03:21:23.176Z,100462.22
2023-11-16T03:24:10.468Z,100464.81
2023-11-16T03:26:57.033Z,100458.72
2023-11-16T03:29:43.909Z,100465.66
2023-11-16T03:32:30.594Z,100461.25
2023-11-16T03:35:17.190Z,100461.25
2023-11-16T03:38:04.164Z,100456.03
2023-11-16T03:40:50.545Z,100459.56
2023-11-16T03:43:36.324Z,100454.34
2023-11-16T03:46:22.029Z,100456.19
2023-11-16T03:49:07.293Z,100457.72
2023-11-16T03:51:52.726Z,100449.06
2023-11-16T03:54:37.856Z,100457.75
2023-11-16T03:57:23.032Z,100459.56
2023-11-16T04:00:09.554Z,100452.69
2023-11-16T04:02:59.909Z,100451.75
2023-11-16T04:05:45.356Z,100450.81
2023-11-16T04:08:30.892Z,100440.41
2023-11-16T04:11:19.126Z,100430.94
2023-11-16T04:14:05.900Z,100437.91
2023-11-16T04:16:54.481Z,100436.06
2023-11-16T04:19:40.129Z,100434.25
2023-11-16T04:22:25.582Z,100436.91
2023-11-16T04:25:26.944Z,100437.72
2023-11-16T04:28:14.670Z,100433.34
2023-11-16T04:31:00.133Z,100430.72
2023-11-16T04:33:46.320Z,100426.41
2023-11-16T04:36:33.468Z,100417.72
2023-11-16T04:39:19.150Z,100424.78
2023-11-16T04:42:04.749Z,100423.97
2023-11-16T04:44:50.511Z,100415.25
2023-11-16T04:47:39.050Z,100417.91
2023-11-16T04:50:28.361Z,100417.81
2023-11-16T04:53:13.574Z,100411.84
2023-11-16T04:55:59.285Z,100408.25
2023-11-16T04:58:46.436Z,100414.41
2023-11-16T05:01:32.110Z,100423.16
2023-11-16T05:04:18.142Z,100425.88
2023-11-16T05:07:04.189Z,100432.88
2023-11-16T05:09:52.077Z,100439.06
2023-11-16T05:12:41.419Z,100438.25
2023-11-16T05:15:26.821Z,100442.72
2023-11-16T05:18:12.419Z,100437.53
2023-11-16T05:21:02.635Z,100442.72
2023-11-16T05:23:48.207Z,100440.22
2023-11-16T05:26:33.897Z,100447.94
2023-11-16T05:29:19.440Z,100445.34
2023-11-16T05:32:05.920Z,100454.88
2023-11-16T05:34:52.141Z,100459.28
2023-11-16T05:37:38.613Z,100456.69
2023-11-16T05:40:23.904Z,100462.84
2023-11-16T05:43:09.734Z,100476.66
2023-11-16T05:45:55.165Z,100468.13
2023-11-16T05:48:40.703Z,100474.19
2023-11-16T05:51:26.277Z,100468.16
2023-11-16T05:54:11.801Z,100472.53
2023-11-16T05:56:57.781Z,100463.94
2023-11-16T05:59:43.255Z,100475.19
2023-11-16T06:02:29.552Z,100483.00
2023-11-16T06:05:16.554Z,100478.75
2023-11-16T06:08:02.609Z,100480.56
2023-11-16T06:10:48.663Z,100473.50
2023-11-16T06:13:35.732Z,100477.03
2023-11-16T06:16:23.402Z,100477.06
2023-11-16T06:19:09.153Z,100482.25
2023-11-16T06:21:55.397Z,100484.03
2023-11-16T06:24:40.654Z,100484.00
2023-11-16T06:27:25.840Z,100489.16
2023-11-16T06:30:14.994Z,100499.53
2023-11-16T06:33:01.444Z,100489.16
2023-11-16T06:35:46.850Z,100493.47
2023-11-16T06:38:32.181Z,100495.22
2023-11-16T06:41:17.876Z,100499.53
2023-11-16T06:44:06.938Z,100503.91
2023-11-16T06:46:53.588Z,100498.72
2023-11-16T06:49:39.257Z,100508.25
2023-11-16T06:52:27.742Z,100511.75
2023-11-16T06:55:15.033Z,100512.69
2023-11-16T06:58:00.754Z,100518.66
2023-11-16T07:00:51.522Z,100529.06
2023-11-16T07:03:37.370Z,100541.19
2023-11-16T07:06:23.030Z,100538.66
2023-11-16T07:09:08.214Z,100537.88
2023-11-16T07:11:55.067Z,100543.97
2023-11-16T07:14:47.974Z,100550.84
2023-11-16T07:17:40.005Z,100549.19
2023-11-16T07:20:26.420Z,100552.63
2023-11-16T07:23:12.946Z,100553.53
2023-11-16T07:26:01.344Z,100564.78
2023-11-16T07:28:49.455Z,100562.22
2023-11-16T07:31:35.420Z,100571.69
2023-11-16T07:34:21.409Z,100568.22
2023-11-16T07:37:06.738Z,100569.91
2023-11-16T07:39:52.699Z,100577.69
2023-11-16T07:42:40.857Z,100580.28
2023-11-16T07:45:27.740Z,100593.19
2023-11-16T07:48:15.376Z,100589.72
2023-11-16T07:51:00.960Z,100582.78
2023-11-16T07:53:52.081Z,100597.31
2023-11-16T07:56:38.178Z,100606.69
2023-11-16T07:59:32.846Z,100608.41
2023-11-16T08:02:18.804Z,100606.59
2023-11-16T08:05:07.572Z,100608.50
2023-11-16T08:07:53.927Z,100612.09
2023-11-16T08:10:40.361Z,100594.13
2023-11-16T08:13:25.720Z,100606.28
2023-11-16T08:16:14.450Z,100600.22
2023-11-16T08:18:59.737Z,100604.47
2023-11-16T08:21:47.595Z,100608.78
2023-11-16T08:24:33.299Z,100608.78
2023-11-16T08:27:19.534Z,100603.44
2023-11-16T08:30:08.907Z,100615.38
2023-11-16T08:32:54.534Z,100622.16
2023-11-16T08:35:40.301Z,100615.16
2023-11-16T08:38:26.929Z,100608.84
2023-11-16T08:41:16.544Z,100603.44
2023-11-16T08:44:03.426Z,100606.09
2023-11-16T08:46:54.323Z,100612.78
2023-11-16T08:49:39.885Z,100598.19
2023-11-16T08:52:26.297Z,100605.00
2023-11-16T08:55:13.315Z,100612.72
2023-11-16T08:57:58.535Z,100623.38
2023-11-16T09:00:47.379Z,100616.06
2023-11-16T09:03:35.582Z,100606.88
2023-11-16T09:06:23.236Z,100610.31
2023-11-16T09:09:31.688Z,100602.38
2023-11-16T09:12:18.149Z,100610.78
2023-11-16T09:15:03.860Z,100618.00
2023-11-16T09:17:51.546Z,100617.81
2023-11-16T09:20:37.204Z,100613.75
2023-11-16T09:23:22.505Z,100620.59
2023-11-16T09:26:11.383Z,100617.06
2023-11-16T09:29:05.121Z,100619.06
2023-11-16T09:31:53.518Z,100631.44
2023-11-16T09:34:38.537Z,100619.69
2023-11-16T09:37:27.275Z,100622.47
2023-11-16T09:40:24.087Z,100611.34
2023-11-16T09:43:18.823Z,100616.00
2023-11-16T09:46:10.777Z,100616.78
2023-11-16T09:48:57.010Z,100620.13
2023-11-16T09:51:42.110Z,100619.38
2023-11-16T09:54:30.653Z,100616.84
2023-11-16T09:57:20.538Z,100617.72
2023-11-16T10:00:20.133Z,100618.50
2023-11-16T10:03:07.445Z,100603.72
2023-11-16T10:05:56.344Z,100607.22
2023-11-16T10:08:41.890Z,100607.00
2023-11-16T10:11:27.462Z,100602.59
2023-11-16T10:14:13.404Z,100605.34
2023-11-16T10:17:00.289Z,100607.88
2023-11-16T10:19:46.275Z,100610.78
2023-11-16T10:22:32.023Z,100611.22
2023-11-16T10:25:19.452Z,100625.25
2023-11-16T10:28:24.542Z,100629.78
2023-11-16T10:31:10.127Z,100621.03
2023-11-16T10:33:57.291Z,100615.13
2023-11-16T10:36:45.691Z,100609.22
2023-11-16T10:39:32.595Z,100604.13
2023-11-16T10:42:19.526Z,100590.84
2023-11-16T10:45:07.569Z,100581.78
2023-11-16T10:47:53.174Z,100582.94
2023-11-16T10:50:38.217Z,100568.63
2023-11-16T10:53:25.153Z,100570.19
2023-11-16T10:56:13.305Z,100573.13
2023-11-16T10:59:06.721Z,100558.78
2023-11-16T11:01:52.088Z,100556.97
2023-11-16T11:04:37.737Z,100555.97
2023-11-16T11:07:27.297Z,100566.09
2023-11-16T11:10:19.149Z,100579.38
2023-11-16T11:13:06.628Z,100569.97
2023-11-16T11:15:52.229Z,100570.31
2023-11-16T11:18:50.044Z,100577.81
2023-11-16T11:21:37.377Z,100572.75
2023-11-16T11:24:23.620Z,100580.34
2023-11-16T11:27:10.040Z,100571.88
2023-11-16T11:29:56.203Z,100557.09
2023-11-16T11:32:56.732Z,100551.25
2023-11-16T11:35:50.021Z,100538.44
2023-11-16T11:38:40.136Z,100537.25
2023-11-16T11:41:25.806Z,100538.06
2023-11-16T11:44:14.954Z,100541.44
2023-11-16T11:47:02.726Z,100524.53
2023-11-16T11:49:48.242Z,100529.66
2023-11-16T11:52:35.955Z,100526.56
2023-11-16T11:55:27.634Z,100521.63
2023-11-16T11:58:13.265Z,100522.13
2023-11-16T12:00:58.587Z,100508.97
2023-11-16T12:04:00.915Z,100522.09
2023-11-16T12:06:51.341Z,100520.31
2023-11-16T12:09:51.484Z,100519.25
2023-11-16T12:12:40.464Z,100515.06
2023-11-16T12:15:26.378Z,100518.38
2023-11-16T12:18:14.649Z,100517.84
2023-11-16T12:21:01.107Z,100520.72
2023-11-16T12:23:49.057Z,100522.53
2023-11-16T12:26:34.258Z,100524.06
2023-11-16T12:29:24.334Z,100527.88
2023-11-16T12:32:09.800Z,100528.72
2023-11-16T12:34:55.274Z,100520.56
2023-11-16T12:37:40.697Z,100514.56
2023-11-16T12:40:26.120Z,100517.31
2023-11-16T12:43:13.287Z,100513.88
2023-11-16T12:46:00.066Z,100508.66
2023-11-16T12:48:46.129Z,100505.13
2023-11-16T12:51:31.586Z,100499.00
2023-11-16T12:54:17.184Z,100491.31
2023-11-16T12:57:05.179Z,100494.66
2023-11-16T12:59:50.860Z,100491.22
2023-11-16T13:02:37.953Z,100492.97
2023-11-16T13:05:23.714Z,100487.69
2023-11-16T13:08:10.248Z,100491.19
2023-11-16T13:10:56.297Z,100488.69
2023-11-16T13:13:41.964Z,100486.16
2023-11-16T13:16:27.996Z,100482.66
2023-11-16T13:19:13.113Z,100478.25
2023-11-16T13:21:58.337Z,100474.81
2023-11-16T13:24:43.601Z,100478.25
2023-11-16T13:27:38.335Z,100466.28
2023-11-16T13:30:29.401Z,100463.81
2023-11-16T13:33:15.357Z,100465.84
2023-11-16T13:36:01.357Z,100463.56
2023-11-16T13:38:47.626Z,100467.81
2023-11-16T13:41:32.770Z,100471.19
2023-11-16T13:44:19.624Z,100475.59
2023-11-16T13:47:05.463Z,100471.53
2023-11-16T13:49:51.359Z,100476.75
2023-11-16T13:52:39.492Z,100472.19
2023-11-16T13:55:24.680Z,100478.41
2023-11-16T13:58:10.002Z,100474.66
2023-11-16T14:00:56.343Z,100475.59
2023-11-16T14:03:41.765Z,100473.84
2023-11-16T14:06:27.105Z,100468.53
2023-11-16T14:09:14.920Z,100464.06
2023-11-16T14:12:01.571Z,100450.16
2023-11-16T14:14:47.094Z,100458.88
2023-11-16T14:17:32.881Z,100451.25
2023-11-16T14:20:18.564Z,100450.41
2023-11-16T14:23:04.480Z,100451.81
2023-11-16T14:25:50.763Z,100448.50
2023-11-16T14:28:37.001Z,100446.09
2023-11-16T14:31:22.586Z,100437.16
2023-11-16T14:34:08.296Z,100434.94
2023-11-16T14:36:55.709Z,100430.44
2023-11-16T14:39:41.396Z,100428.88
2023-11-16T14:42:28.106Z,100426.78
2023-11-16T14:45:13.726Z,100429.34
2023-11-16T14:48:00.011Z,100420.88
2023-11-16T14:50:45.452Z,100420.91
2023-11-16T14:53:34.559Z,100421.72
2023-11-16T14:56:21.517Z,100422.44
2023-11-16T14:59:10.325Z,100424.56
2023-11-16T15:01:55.812Z,100425.38
2023-11-16T15:04:44.241Z,100425.13
2023-11-16T15:07:29.974Z,100430.16
2023-11-16T15:10:21.959Z,100429.09
2023-11-16T15:13:08.066Z,100422.41
2023-11-16T15:15:54.068Z,100419.34
2023-11-16T15:18:40.624Z,100424.38
2023-11-16T15:21:26.034Z,100423.16
2023-11-16T15:24:12.768Z,100417.28
2023-11-16T15:27:00.127Z,100411.97
2023-11-16T15:29:47.050Z,100402.50
2023-11-16T15:32:34.601Z,100405.28
2023-11-16T15:35:19.967Z,100409.13
2023-11-16T15:38:05.839Z,100404.06
2023-11-16T15:40:50.995Z,100393.59
2023-11-16T15:43:36.922Z,100391.84
2023-11-16T15:46:21.940Z,100399.50
2023-11-16T15:49:07.967Z,100390.38
2023-11-16T15:51:53.301Z,100396.56
2023-11-16T15:54:38.626Z,100384.97
2023-11-16T15:57:27.707Z,100393.06
2023-11-16T16:00:20.479Z,100393.06
2023-11-16T16:03:08.833Z,100390.19
2023-11-16T16:05:54.782Z,100396.56
2023-11-16T16:08:40.892Z,100392.09
2023-11-16T16:11:29.863Z,100393.31
2023-11-16T16:14:14.918Z,100399.28
2023-11-16T16:17:02.028Z,100401.50
2023-11-16T16:19:47.577Z,100403.75
2023-11-16T16:22:33.316Z,100401.75
2023-11-16T16:25:18.433Z,100406.91
2023-11-16T16:28:04.757Z,100401.84
2023-11-16T16:30:50.253Z,100413.72
2023-11-16T16:33:36.285Z,100414.78
2023-11-16T16:36:21.433Z,100414.88
2023-11-16T16:39:11.587Z,100420.09
2023-11-16T16:41:59.768Z,100422.91
2023-11-16T16:44:45.189Z,100421.16
2023-11-16T16:47:30.150Z,100425.59
2023-11-16T16:50:16.182Z,100419.88
2023-11-16T16:53:01.280Z,100423.19
2023-11-16T16:55:46.786Z,100421.19
2023-11-16T16:58:32.306Z,100432.38
2023-11-16T17:01:18.258Z,100437.47
2023-11-16T17:04:04.928Z,100433.19
2023-11-16T17:06:50.389Z,100439.63
2023-11-16T17:09:36.251Z,100443.94
2023-11-16T17:12:22.086Z,100448.22
2023-11-16T17:15:07.953Z,100455.25
2023-11-16T17:17:53.140Z,100459.69
2023-11-16T17:20:39.408Z,100455.41
2023-11-16T17:23:24.655Z,100450.03
2023-11-16T17:26:11.699Z,100456.31
2023-11-16T17:28:59.654Z,100465.16
2023-11-16T17:31:45.225Z,100461.47
2023-11-16T17:34:32.978Z,100466.66
2023-11-16T17:37:18.456Z,100467.69
2023-11-16T17:40:08.689Z,100466.03
2023-11-16T17:42:54.353Z,100468.50
2023-11-16T17:45:40.222Z,100465.31
2023-11-16T17:48:25.867Z,100468.81
2023-11-16T17:51:11.247Z,100474.69
2023-11-16T17:53:57.410Z,100467.53
2023-11-16T17:56:46.565Z,100481.31
2023-11-16T17:59:31.724Z,100470.00
2023-11-16T18:02:17.680Z,100476.31
2023-11-16T18:05:03.036Z,100476.34
2023-11-16T18:07:48.732Z,100474.56
2023-11-16T18:10:34.619Z,100474.06
2023-11-16T18:13:19.944Z,100479.47
2023-11-16T18:16:06.185Z,100474.84
2023-11-16T18:18:52.372Z,100460.94
2023-11-16T18:21:37.954Z,100474.09
2023-11-16T18:24:23.283Z,100466.91
2023-11-16T18:27:08.240Z,100475.88
2023-11-16T18:29:53.987Z,100473.84
2023-11-16T18:32:44.305Z,100459.44
2023-11-16T18:35:31.081Z,100468.84
2023-11-16T18:38:16.853Z,100465.16
2023-11-16T18:41:02.792Z,100473.78
2023-11-16T18:43:48.532Z,100477.28
2023-11-16T18:46:36.977Z,100468.63
2023-11-16T18:49:22.677Z,100475.72
2023-11-16T18:52:09.456Z,100472.28
2023-11-16T18:54:55.406Z,100483.22
2023-11-16T18:57:41.126Z,100472.59
2023-11-16T19:00:27.538Z,100483.66
2023-11-16T19:03:16.319Z,100476.66
2023-11-16T19:06:02.808Z,100481.88
2023-11-16T19:08:48.439Z,100481.06
2023-11-16T19:11:34.067Z,100479.94
2023-11-16T19:14:23.289Z,100481.22
2023-11-16T19:17:09.286Z,100475.66
2023-11-16T19:19:55.537Z,100469.38
2023-11-16T19:22:44.185Z,100475.53
2023-11-16T19:25:34.061Z,100472.28
2023-11-16T19:28:24.434Z,100479.06
2023-11-16T19:31:09.704Z,100476.34
2023-11-16T19:33:55.871Z,100478.94
2023-11-16T19:36:43.693Z,100477.38
2023-11-16T19:39:40.339Z,100481.88
2023-11-16T19:42:30.252Z,100472.28
2023-11-16T19:45:15.570Z,100478.75
2023-11-16T19:48:01.576Z,100475.25
2023-11-16T19:50:48.571Z,100472.22
2023-11-16T19:53:34.497Z,100485.34
2023-11-16T19:56:20.197Z,100481.25
2023-11-16T19:59:05.987Z,100472.38
2023-11-16T20:01:52.134Z,100474.09
2023-11-16T20:04:39.918Z,100469.56
2023-11-16T20:07:28.628Z,100468.00
2023-11-16T20:10:16.669Z,100467.47
2023-11-16T20:13:02.040Z,100462.69
2023-11-16T20:15:47.290Z,100466.28
2023-11-16T20:18:35.777Z,100465.44
2023-11-16T20:21:22.589Z,100466.34
2023-11-16T20:24:08.844Z,100464.38
2023-11-16T20:26:55.653Z,100468.75
2023-11-16T20:29:41.052Z,100473.91
2023-11-16T20:32:26.812Z,100476.41
2023-11-16T20:35:14.072Z,100467.94
2023-11-16T20:37:59.609Z,100469.09
2023-11-16T20:40:44.691Z,100461.25
2023-11-16T20:43:30.353Z,100455.03
2023-11-16T20:46:23.315Z,100449.00
2023-11-16T20:49:08.806Z,100451.88
2023-11-16T20:51:56.223Z,100445.84
2023-11-16T20:54:44.461Z,100443.75
2023-11-16T20:57:30.024Z,100445.63
2023-11-16T21:00:21.818Z,100450.31
2023-11-16T21:03:08.037Z,100454.69
2023-11-16T21:05:53.447Z,100453.00
2023-11-16T21:08:38.700Z,100450.88
2023-11-16T21:11:23.988Z,100452.41
2023-11-16T21:14:09.909Z,100453.16
2023-11-16T21:16:55.522Z,100448.72
2023-11-16T21:19:40.971Z,100452.16
2023-11-16T21:22:27.809Z,100449.59
2023-11-16T21:25:13.901Z,100459.28
2023-11-16T21:27:59.499Z,100451.53
2023-11-16T21:30:44.802Z,100458.31
2023-11-16T21:33:30.471Z,100466.13
2023-11-16T21:36:16.064Z,100458.34
2023-11-16T21:39:01.469Z,100459.97
2023-11-16T21:41:47.859Z,100462.38
2023-11-16T21:44:32.977Z,100461.06
2023-11-16T21:47:18.656Z,100446.16
2023-11-16T21:50:06.138Z,100457.47
2023-11-16T21:52:51.796Z,100453.25
2023-11-16T21:55:37.865Z,100454.19
2023-11-16T21:58:23.153Z,100452.41
2023-11-16T22:01:09.227Z,100455.69
2023-11-16T22:03:55.020Z,100452.66
2023-11-16T22:06:42.637Z,100461.44
2023-11-16T22:09:28.557Z,100458.50
2023-11-16T22:12:13.970Z,100451.47
2023-11-16T22:15:00.103Z,100453.31
2023-11-16T22:17:46.978Z,100460.25
2023-11-16T22:20:33.691Z,100466.44
2023-11-16T22:23:19.642Z,100471.69
2023-11-16T22:26:05.194Z,100473.66
2023-11-16T22:28:52.366Z,100470.16
2023-11-16T22:31:38.768Z,100473.59
2023-11-16T22:34:24.057Z,100476.03
2023-11-16T22:37:09.234Z,100473.56
2023-11-16T22:39:54.675Z,100483.22
2023-11-16T22:42:39.943Z,100480.22
2023-11-16T22:45:26.509Z,100489.13
2023-11-16T22:48:11.862Z,100493.47
2023-11-16T22:50:57.154Z,100495.13
2023-11-16T22:53:42.227Z,100499.56
2023-11-16T22:56:27.692Z,100503.22
2023-11-16T22:59:13.566Z,100499.03
2023-11-16T23:02:02.260Z,100497.25
2023-11-16T23:04:48.774Z,100502.34
2023-11-16T23:07:38.746Z,100504.63
2023-11-16T23:10:26.750Z,100505.53
2023-11-16T23:13:13.621Z,100508.31
2023-11-16T23:15:59.274Z,100513.34
2023-11-16T23:18:47.150Z,100520.09
2023-11-16T23:21:40.858Z,100517.63
2023-11-16T23:24:28.268Z,100521.88
2023-11-16T23:27:15.086Z,100522.72
2023-11-16T23:30:00.908Z,100527.84
2023-11-16T23:32:46.481Z,100530.84
2023-11-16T23:35:31.559Z,100529.06
2023-11-16T23:38:17.100Z,100535.88
2023-11-16T23:41:02.733Z,100528.22
2023-11-16T23:43:48.827Z,100529.97
2023-11-16T23:46:35.993Z,100531.66
2023-11-16T23:49:21.631Z,100534.25
2023-11-16T23:52:09.484Z,100531.69
2023-11-16T23:54:54.882Z,100536.69
2023-11-16T23:57:41.262Z,100542.88
